Time;durP1;ratioP1;P1;durP2;ratioP2;P2;SDS_P1;SDS_P2;PMS_P1;PMS_P2;Temp;Humidity;BMP_temperature;BMP_pressure;BME280_temperature;BME280_humidity;BME280_pressure;Samples;Min_cycle;Max_cycle;Signal;HPM_P1;HPM_P2
2021/05/02 00:01:49;;;;;;;53.92;32.63;;;7.30;58.60;;;;;;5058042;28;20045;-65
2021/05/02 00:04:38;;;;;;;56.00;32.67;;;7.30;58.60;;;;;;5057422;28;20481;-63
2021/05/02 00:07:30;;;;;;;55.10;31.65;;;7.20;58.60;;;;;;5057879;28;20037;-64
2021/05/02 00:10:23;;;;;;;48.75;31.00;;;7.20;56.60;;;;;;5054611;28;20044;-64
2021/05/02 00:13:10;;;;;;;52.88;31.20;;;7.10;57.00;;;;;;5053760;28;20047;-63
2021/05/02 00:15:58;;;;;;;54.22;29.15;;;7.10;54.70;;;;;;5053642;28;20053;-63
2021/05/02 00:18:47;;;;;;;44.55;30.23;;;7.10;54.30;;;;;;5064673;28;20045;-63
2021/05/02 00:21:35;;;;;;;50.38;30.67;;;7.10;54.40;;;;;;5058714;28;20048;-64
2021/05/02 00:24:22;;;;;;;53.85;30.38;;;7.10;53.90;;;;;;5058154;28;20533;-63
2021/05/02 00:27:10;;;;;;;46.95;30.45;;;7.00;52.70;;;;;;5057922;28;20061;-64
2021/05/02 00:30:00;;;;;;;45.45;29.02;;;7.00;50.90;;;;;;5062801;28;20040;-63
2021/05/02 00:32:51;;;;;;;43.22;26.77;;;7.00;48.20;;;;;;5056206;28;20045;-64
2021/05/02 00:35:39;;;;;;;45.03;28.90;;;6.90;47.70;;;;;;5052040;28;20478;-64
2021/05/02 00:38:27;;;;;;;43.20;26.95;;;6.90;47.40;;;;;;5065274;28;20047;-64
2021/05/02 00:41:21;;;;;;;44.13;28.40;;;6.90;48.60;;;;;;5060898;28;20408;-64
2021/05/02 00:44:17;;;;;;;41.75;27.73;;;6.90;50.30;;;;;;5056373;28;20049;-63
2021/05/02 00:47:11;;;;;;;47.35;29.80;;;6.90;51.70;;;;;;5050148;28;20041;-65
2021/05/02 00:50:08;;;;;;;45.40;29.40;;;6.80;51.80;;;;;;5062732;28;20040;-64
2021/05/02 00:53:13;;;;;;;45.47;29.27;;;6.80;52.40;;;;;;5051747;28;20041;-64
2021/05/02 00:56:17;;;;;;;43.25;28.48;;;6.80;53.00;;;;;;5051820;28;20093;-64
2021/05/02 00:59:05;;;;;;;45.90;29.02;;;6.80;51.80;;;;;;5051250;28;20503;-65
2021/05/02 01:01:54;;;;;;;52.42;31.52;;;6.80;51.80;;;;;;5054330;28;20496;-64
2021/05/02 01:04:43;;;;;;;44.78;29.10;;;6.80;54.00;;;;;;5050007;28;20044;-64
2021/05/02 01:07:37;;;;;;;48.88;32.00;;;6.90;55.00;;;;;;5057099;28;20538;-63
2021/05/02 01:10:25;;;;;;;48.38;31.33;;;7.00;56.70;;;;;;5056116;28;20040;-65
2021/05/02 01:13:15;;;;;;;49.38;31.45;;;6.90;55.90;;;;;;5057994;28;20052;-64
2021/05/02 01:16:04;;;;;;;44.97;29.85;;;6.80;53.40;;;;;;5058981;28;20048;-64
2021/05/02 01:18:53;;;;;;;50.88;30.70;;;6.70;52.50;;;;;;5054860;28;20045;-63
2021/05/02 01:21:42;;;;;;;46.22;28.95;;;6.70;54.90;;;;;;5052998;28;20481;-65
2021/05/02 01:24:34;;;;;;;48.53;31.27;;;6.70;55.60;;;;;;5058858;28;20062;-65
2021/05/02 01:27:27;;;;;;;49.58;32.42;;;6.70;54.80;;;;;;5055931;28;20404;-63
2021/05/02 01:30:16;;;;;;;41.92;28.73;;;6.70;55.60;;;;;;5061509;28;20447;-63
2021/05/02 01:33:04;;;;;;;47.20;29.60;;;6.70;52.80;;;;;;5053549;28;20045;-64
2021/05/02 01:35:51;;;;;;;45.97;28.73;;;6.70;52.20;;;;;;5056152;28;20044;-63
2021/05/02 01:38:39;;;;;;;44.28;29.55;;;6.60;49.80;;;;;;5059185;28;20278;-63
2021/05/02 01:41:26;;;;;;;42.70;28.98;;;6.60;51.60;;;;;;5060764;28;20507;-64
2021/05/02 01:44:14;;;;;;;48.15;30.00;;;6.50;52.40;;;;;;5061145;28;20047;-65
2021/05/02 01:47:06;;;;;;;48.10;30.30;;;6.50;53.40;;;;;;5052199;28;20055;-64
2021/05/02 01:49:57;;;;;;;49.42;30.17;;;6.50;54.80;;;;;;5058330;28;20036;-63
2021/05/02 01:52:46;;;;;;;50.47;31.27;;;6.50;54.40;;;;;;5058871;28;20040;-64
2021/05/02 01:55:34;;;;;;;48.17;30.83;;;6.50;55.60;;;;;;5054092;28;20844;-64
2021/05/02 01:58:22;;;;;;;50.40;31.17;;;6.50;56.40;;;;;;5061568;28;20488;-64
2021/05/02 02:01:13;;;;;;;50.90;33.00;;;6.50;57.00;;;;;;5061944;28;20064;-63
2021/05/02 02:04:03;;;;;;;55.22;32.80;;;6.50;57.20;;;;;;5056188;28;20143;-64
2021/05/02 02:06:53;;;;;;;50.00;31.90;;;6.40;56.40;;;;;;5057719;28;20041;-64
2021/05/02 02:09:40;;;;;;;55.50;35.17;;;6.40;57.40;;;;;;5059750;28;20045;-64
2021/05/02 02:12:31;;;;;;;52.33;33.60;;;6.50;58.10;;;;;;5053955;28;20676;-63
2021/05/02 02:15:19;;;;;;;54.28;33.28;;;6.40;57.60;;;;;;5053115;28;20039;-64
2021/05/02 02:18:08;;;;;;;57.03;33.03;;;6.40;58.50;;;;;;5060739;28;20052;-63
2021/05/02 02:20:56;;;;;;;58.13;34.75;;;6.40;58.20;;;;;;5058541;28;20045;-63
2021/05/02 02:23:49;;;;;;;57.60;34.85;;;6.50;58.90;;;;;;5062573;28;20040;-64
2021/05/02 02:26:48;;;;;;;57.33;35.38;;;6.50;58.30;;;;;;5057131;28;20511;-64
2021/05/02 02:29:40;;;;;;;60.28;35.75;;;6.40;58.50;;;;;;5060226;28;20036;-64
2021/05/02 02:32:29;;;;;;;57.03;35.45;;;6.40;57.70;;;;;;5054974;28;20739;-63
2021/05/02 02:35:19;;;;;;;57.03;35.35;;;6.40;57.40;;;;;;5057395;28;20400;-63
2021/05/02 02:38:08;;;;;;;57.13;35.38;;;6.30;57.10;;;;;;5060760;28;20466;-64
2021/05/02 02:40:57;;;;;;;58.47;36.08;;;6.40;57.40;;;;;;5053256;28;20053;-64
2021/05/02 02:43:53;;;;;;;62.45;37.45;;;6.40;57.90;;;;;;5059710;28;20051;-64
2021/05/02 02:46:44;;;;;;;61.50;37.33;;;6.30;57.20;;;;;;5058005;28;20041;-64
2021/05/02 02:49:33;;;;;;;63.05;37.03;;;6.30;56.20;;;;;;5061136;28;20139;-65
2021/05/02 02:52:22;;;;;;;61.75;36.28;;;6.30;57.10;;;;;;5063733;28;20040;-63
2021/05/02 02:55:12;;;;;;;61.22;36.15;;;6.30;57.10;;;;;;5060015;28;20048;-63
2021/05/02 02:58:01;;;;;;;61.17;37.95;;;6.40;57.50;;;;;;5060181;28;20048;-63
2021/05/02 03:00:49;;;;;;;58.55;35.90;;;6.40;57.40;;;;;;5061015;28;20045;-64
2021/05/02 03:03:41;;;;;;;58.38;35.80;;;6.30;56.50;;;;;;5060598;28;20040;-64
2021/05/02 03:06:29;;;;;;;62.95;37.53;;;6.40;57.80;;;;;;5058904;28;20063;-64
2021/05/02 03:09:17;;;;;;;60.17;36.00;;;6.30;57.90;;;;;;5066068;28;20044;-64
2021/05/02 03:12:05;;;;;;;60.97;36.63;;;6.30;57.50;;;;;;5059870;28;20049;-65
2021/05/02 03:14:54;;;;;;;54.20;35.75;;;6.40;58.00;;;;;;5057679;28;20045;-63
2021/05/02 03:17:43;;;;;;;58.47;36.08;;;6.30;57.80;;;;;;5064740;28;20048;-64
2021/05/02 03:20:35;;;;;;;59.30;35.53;;;6.30;57.90;;;;;;5062964;28;20111;-63
2021/05/02 03:23:30;;;;;;;56.60;34.58;;;6.30;56.60;;;;;;5055908;28;20094;-63
2021/05/02 03:26:19;;;;;;;57.17;35.38;;;6.40;56.80;;;;;;5059576;28;20049;-63
2021/05/02 03:29:09;;;;;;;58.38;37.70;;;6.30;56.60;;;;;;5063638;28;20044;-65
2021/05/02 03:31:58;;;;;;;58.13;35.60;;;6.40;58.00;;;;;;5064849;28;20037;-65
2021/05/02 03:34:48;;;;;;;57.53;37.47;;;6.50;58.00;;;;;;5055714;28;20119;-64
2021/05/02 03:37:36;;;;;;;59.25;38.78;;;6.40;57.70;;;;;;5061612;28;20106;-64
2021/05/02 03:40:24;;;;;;;57.90;36.88;;;6.50;57.60;;;;;;5062251;28;20055;-65
2021/05/02 03:43:12;;;;;;;54.30;34.92;;;6.40;55.80;;;;;;5061557;28;20052;-64
2021/05/02 03:45:59;;;;;;;59.15;36.67;;;6.40;54.20;;;;;;5058778;28;20049;-64
2021/05/02 03:48:46;;;;;;;52.35;33.92;;;6.40;56.40;;;;;;5057284;28;20036;-64
2021/05/02 03:51:35;;;;;;;55.95;34.85;;;6.40;55.90;;;;;;5064369;28;20044;-64
2021/05/02 03:54:22;;;;;;;57.72;35.10;;;6.50;56.90;;;;;;5058076;28;20036;-64
2021/05/02 03:57:11;;;;;;;62.70;36.85;;;6.50;56.30;;;;;;5065376;28;20530;-64
2021/05/02 03:59:59;;;;;;;58.83;37.90;;;6.50;56.20;;;;;;5063507;28;20741;-63
2021/05/02 04:02:46;;;;;;;59.72;38.30;;;6.50;56.50;;;;;;5057408;28;20162;-63
2021/05/02 04:05:34;;;;;;;59.40;38.67;;;6.60;56.70;;;;;;5052965;28;20044;-64
2021/05/02 04:08:21;;;;;;;61.78;37.65;;;6.60;56.50;;;;;;5060827;28;20650;-64
2021/05/02 04:11:08;;;;;;;61.58;39.40;;;6.60;57.50;;;;;;5059923;28;20127;-64
2021/05/02 04:13:56;;;;;;;65.93;38.72;;;6.60;57.70;;;;;;5062479;28;20044;-64
2021/05/02 04:16:44;;;;;;;64.00;40.05;;;6.60;57.90;;;;;;5066302;28;20129;-63
2021/05/02 04:19:33;;;;;;;58.83;37.67;;;6.60;57.90;;;;;;5060676;28;20126;-64
2021/05/02 04:22:21;;;;;;;64.20;38.58;;;6.60;57.60;;;;;;5059289;28;20048;-63
2021/05/02 04:25:10;;;;;;;62.15;35.70;;;6.60;58.00;;;;;;5054834;28;20056;-64
2021/05/02 04:27:57;;;;;;;60.63;38.05;;;6.60;57.10;;;;;;5054664;28;20094;-63
2021/05/02 04:30:45;;;;;;;63.28;37.60;;;6.70;58.00;;;;;;5059555;28;20049;-62
2021/05/02 04:33:32;;;;;;;59.75;37.70;;;6.70;57.70;;;;;;5056785;28;20636;-63
2021/05/02 04:36:19;;;;;;;64.53;39.20;;;6.70;58.30;;;;;;5056966;28;20052;-64
2021/05/02 04:39:07;;;;;;;57.50;37.72;;;6.70;58.20;;;;;;5067136;28;20045;-65
2021/05/02 04:41:55;;;;;;;60.65;36.70;;;6.70;57.90;;;;;;5059798;28;20489;-63
2021/05/02 04:44:42;;;;;;;56.67;35.35;;;6.70;57.40;;;;;;5061506;28;20049;-63
2021/05/02 04:47:30;;;;;;;57.63;37.47;;;6.70;56.20;;;;;;5056777;28;20063;-63
2021/05/02 04:50:17;;;;;;;56.20;35.97;;;6.70;56.20;;;;;;5058164;28;20043;-64
2021/05/02 04:53:04;;;;;;;54.67;35.70;;;6.70;56.10;;;;;;5054895;28;20056;-63
2021/05/02 04:55:51;;;;;;;62.42;37.95;;;6.70;54.30;;;;;;5059938;28;20866;-63
2021/05/02 04:58:38;;;;;;;56.58;35.67;;;6.80;54.60;;;;;;5056614;28;20056;-63
2021/05/02 05:01:26;;;;;;;60.83;36.95;;;6.80;53.80;;;;;;5059773;28;20420;-63
2021/05/02 05:04:15;;;;;;;55.83;36.72;;;6.80;55.20;;;;;;5059190;28;20045;-63
2021/05/02 05:07:02;;;;;;;52.70;33.72;;;6.90;55.70;;;;;;5055317;28;20197;-63
2021/05/02 05:09:49;;;;;;;56.47;35.42;;;6.90;54.00;;;;;;5061579;28;20408;-64
2021/05/02 05:12:37;;;;;;;56.05;34.83;;;6.90;51.90;;;;;;5057877;28;20047;-64
2021/05/02 05:15:24;;;;;;;48.65;33.22;;;7.00;50.30;;;;;;5055850;28;20045;-64
2021/05/02 05:18:11;;;;;;;49.45;33.65;;;7.00;50.30;;;;;;5055910;28;20044;-63
2021/05/02 05:20:59;;;;;;;49.03;33.15;;;7.00;48.20;;;;;;5064697;28;20051;-64
2021/05/02 05:23:46;;;;;;;49.35;33.75;;;7.00;48.20;;;;;;5058405;28;20158;-64
2021/05/02 05:26:33;;;;;;;47.58;33.53;;;7.10;48.40;;;;;;5055409;28;20056;-64
2021/05/02 05:29:20;;;;;;;47.53;32.60;;;7.10;49.30;;;;;;5056430;28;20052;-64
2021/05/02 05:32:08;;;;;;;52.42;33.90;;;7.20;47.60;;;;;;5060060;28;20052;-64
2021/05/02 05:34:55;;;;;;;47.50;31.80;;;7.30;47.20;;;;;;5053573;28;20087;-63
2021/05/02 05:37:43;;;;;;;51.10;33.70;;;7.40;46.30;;;;;;5064301;28;20056;-63
2021/05/02 05:40:31;;;;;;;40.83;29.52;;;7.40;43.30;;;;;;5063483;28;20517;-64
2021/05/02 05:43:19;;;;;;;49.15;32.00;;;7.40;40.90;;;;;;5056329;28;20425;-63
2021/05/02 05:46:06;;;;;;;40.67;29.75;;;7.50;42.30;;;;;;5059410;28;20036;-64
2021/05/02 05:48:54;;;;;;;44.65;30.25;;;7.50;41.90;;;;;;5062064;28;20692;-62
2021/05/02 05:51:41;;;;;;;43.25;30.95;;;7.60;40.20;;;;;;5061243;28;20401;-63
2021/05/02 05:54:29;;;;;;;46.45;30.40;;;7.60;40.40;;;;;;5056214;28;20047;-63
2021/05/02 05:57:16;;;;;;;42.38;30.55;;;7.60;39.50;;;;;;5062732;28;20052;-63
2021/05/02 06:00:06;;;;;;;43.65;30.75;;;7.70;40.60;;;;;;5060395;28;20045;-64
2021/05/02 06:02:53;;;;;;;44.85;30.00;;;7.70;39.40;;;;;;5055476;28;20151;-64
2021/05/02 06:05:40;;;;;;;60.10;31.20;;;7.70;39.40;;;;;;5056721;28;20052;-65
2021/05/02 06:08:27;;;;;;;40.95;30.60;;;7.80;38.90;;;;;;5059850;28;20119;-64
2021/05/02 06:11:16;;;;;;;42.97;30.02;;;7.90;38.10;;;;;;5063170;28;20056;-64
2021/05/02 06:14:04;;;;;;;40.45;29.27;;;8.00;35.30;;;;;;5054698;28;20044;-63
2021/05/02 06:16:51;;;;;;;36.33;27.33;;;8.20;33.80;;;;;;5060853;28;20185;-64
2021/05/02 06:19:38;;;;;;;38.55;28.42;;;8.30;32.80;;;;;;5058218;28;20041;-62
2021/05/02 06:22:25;;;;;;;37.58;25.98;;;8.60;27.00;;;;;;5055623;28;20409;-63
2021/05/02 06:25:13;;;;;;;34.90;26.55;;;8.90;28.10;;;;;;5057070;28;20585;-64
2021/05/02 06:28:01;;;;;;;34.63;25.38;;;9.10;26.90;;;;;;5060652;28;20705;-64
2021/05/02 06:30:48;;;;;;;31.88;24.98;;;8.80;24.70;;;;;;5063775;28;20059;-64
2021/05/02 06:33:35;;;;;;;33.17;25.40;;;8.90;25.00;;;;;;5057853;28;20075;-63
2021/05/02 06:36:23;;;;;;;35.22;25.15;;;8.70;25.40;;;;;;5059530;28;20037;-63
2021/05/02 06:39:11;;;;;;;29.73;24.55;;;8.50;22.10;;;;;;5060852;28;20053;-63
2021/05/02 06:41:58;;;;;;;30.73;23.30;;;8.70;23.90;;;;;;5059700;28;20045;-64
2021/05/02 06:44:46;;;;;;;29.73;24.40;;;8.50;22.70;;;;;;5062133;28;20040;-63
2021/05/02 06:47:33;;;;;;;31.92;23.40;;;8.80;22.80;;;;;;5058429;28;20509;-64
2021/05/02 06:50:21;;;;;;;32.95;24.00;;;8.90;23.60;;;;;;5058763;28;20093;-63
2021/05/02 06:53:08;;;;;;;32.00;23.95;;;8.70;22.00;;;;;;5059721;28;20045;-64
2021/05/02 06:55:55;;;;;;;31.58;23.92;;;8.80;23.90;;;;;;5057448;28;21452;-64
2021/05/02 06:58:42;;;;;;;30.25;23.35;;;8.80;22.70;;;;;;5066554;28;20052;-64
2021/05/02 07:01:31;;;;;;;29.20;22.80;;;8.80;20.60;;;;;;5067638;28;20526;-64
2021/05/02 07:04:19;;;;;;;25.50;21.42;;;8.90;19.40;;;;;;5057938;28;20207;-64
2021/05/02 07:07:06;;;;;;;29.13;22.58;;;9.10;17.70;;;;;;5059480;28;20051;-62
2021/05/02 07:09:54;;;;;;;28.20;21.67;;;9.00;19.30;;;;;;5061944;28;20048;-65
2021/05/02 07:12:42;;;;;;;27.98;21.58;;;9.20;18.80;;;;;;5055693;28;20049;-65
2021/05/02 07:15:29;;;;;;;22.35;19.27;;;9.60;17.90;;;;;;5061061;28;20125;-64
2021/05/02 07:18:17;;;;;;;20.33;17.35;;;9.90;12.20;;;;;;5064503;28;20044;-64
2021/05/02 07:21:05;;;;;;;21.45;16.52;;;9.70;8.30;;;;;;5063113;28;20044;-64
2021/05/02 07:23:53;;;;;;;20.80;15.82;;;9.90;7.90;;;;;;5055464;28;20691;-64
2021/05/02 07:26:40;;;;;;;19.92;16.50;;;10.00;4.10;;;;;;5056550;28;20053;-65
2021/05/02 07:29:27;;;;;;;21.38;17.02;;;9.50;8.70;;;;;;5063866;28;20052;-63
2021/05/02 07:32:15;;;;;;;23.63;17.20;;;9.80;7.50;;;;;;5055007;28;20183;-64
2021/05/02 07:35:04;;;;;;;19.60;15.00;;;9.60;10.30;;;;;;5061408;28;20492;-64
2021/05/02 07:37:51;;;;;;;19.40;14.57;;;9.20;3.20;;;;;;5064251;28;20051;-64
2021/05/02 07:40:38;;;;;;;21.10;15.15;;;9.00;7.40;;;;;;5065588;28;20440;-64
2021/05/02 07:43:25;;;;;;;21.95;15.10;;;9.60;8.00;;;;;;5058588;28;20048;-65
2021/05/02 07:46:13;;;;;;;23.90;17.02;;;9.60;3.50;;;;;;5058501;28;20093;-64
2021/05/02 07:49:00;;;;;;;21.85;17.48;;;9.80;4.70;;;;;;5061812;28;20050;-65
2021/05/02 07:51:48;;;;;;;17.27;14.93;;;10.30;2.90;;;;;;5060536;28;20049;-64
2021/05/02 07:54:35;;;;;;;20.77;16.38;;;9.50;4.10;;;;;;5052022;28;20045;-64
2021/05/02 07:57:23;;;;;;;23.60;16.27;;;9.60;3.60;;;;;;5057814;28;20055;-64
2021/05/02 08:00:18;;;;;;;20.48;15.65;;;9.70;1.90;;;;;;5063733;28;20412;-65
2021/05/02 08:03:05;;;;;;;19.63;15.40;;;9.90;2.20;;;;;;5056424;28;20527;-65
2021/05/02 08:05:52;;;;;;;20.80;15.68;;;10.10;1.00;;;;;;5045507;28;20135;-65
2021/05/02 08:08:40;;;;;;;20.83;16.55;;;9.80;1.50;;;;;;5062554;28;20127;-65
2021/05/02 08:11:27;;;;;;;19.13;15.23;;;9.80;4.10;;;;;;5059600;28;20036;-63
2021/05/02 08:14:15;;;;;;;21.92;15.63;;;9.60;1.70;;;;;;5053180;28;20051;-66
2021/05/02 08:17:02;;;;;;;20.20;15.93;;;9.90;2.80;;;;;;5055174;28;20043;-64
2021/05/02 08:19:49;;;;;;;19.58;16.30;;;10.00;1.00;;;;;;5052943;28;20057;-65
2021/05/02 08:22:39;;;;;;;19.92;15.80;;;10.70;1.40;;;;;;5052823;28;20053;-66
2021/05/02 08:25:27;;;;;;;22.10;16.48;;;9.80;1.00;;;;;;5059320;28;20036;-64
2021/05/02 08:28:14;;;;;;;18.08;16.10;;;10.40;1.00;;;;;;5061665;28;20093;-65
2021/05/02 08:31:01;;;;;;;20.00;15.30;;;10.50;1.00;;;;;;5060653;28;20048;-64
2021/05/02 08:33:48;;;;;;;20.98;15.60;;;10.40;1.00;;;;;;5056111;28;20045;-63
2021/05/02 08:36:35;;;;;;;18.45;15.15;;;10.20;1.00;;;;;;5058247;28;20423;-65
2021/05/02 08:39:23;;;;;;;18.85;15.02;;;9.90;1.00;;;;;;5061263;28;20087;-64
2021/05/02 08:42:11;;;;;;;20.30;15.52;;;9.80;1.00;;;;;;5063039;28;20042;-64
2021/05/02 08:45:00;;;;;;;22.20;15.73;;;9.80;1.00;;;;;;5060775;28;20674;-64
2021/05/02 08:47:49;;;;;;;17.90;14.65;;;10.00;1.00;;;;;;5065428;28;20052;-64
2021/05/02 08:50:39;;;;;;;21.10;16.52;;;10.20;1.00;;;;;;5061336;28;20040;-64
2021/05/02 08:53:26;;;;;;;21.88;15.82;;;10.00;1.00;;;;;;5048847;28;20567;-64
2021/05/02 08:56:14;;;;;;;18.52;14.77;;;10.50;1.00;;;;;;5053009;28;20076;-64
2021/05/02 08:59:02;;;;;;;19.10;14.98;;;10.70;1.00;;;;;;5057617;28;20053;-63
2021/05/02 09:01:49;;;;;;;23.23;16.00;;;10.80;1.00;;;;;;5063799;28;20040;-62
2021/05/02 09:04:50;;;;;;;20.38;15.23;;;10.90;1.00;;;;;;5059223;28;20048;-64
2021/05/02 09:07:41;;;;;;;22.92;15.07;;;11.00;1.00;;;;;;5063682;28;20048;-64
2021/05/02 09:10:33;;;;;;;20.42;15.15;;;11.30;1.00;;;;;;5063156;28;20051;-63
2021/05/02 09:13:21;;;;;;;17.98;14.52;;;11.70;1.00;;;;;;5058374;28;20040;-63
2021/05/02 09:16:09;;;;;;;19.67;14.88;;;11.00;1.00;;;;;;5056488;28;20060;-63
2021/05/02 09:19:00;;;;;;;20.73;14.95;;;12.20;1.00;;;;;;5051416;28;20045;-64
2021/05/02 09:21:50;;;;;;;20.10;14.82;;;12.10;1.00;;;;;;5058799;28;20131;-64
2021/05/02 09:24:38;;;;;;;21.15;14.82;;;12.20;1.00;;;;;;5059504;28;20044;-64
2021/05/02 09:27:25;;;;;;;20.02;14.82;;;12.00;1.00;;;;;;5055445;28;20432;-62
2021/05/02 09:30:14;;;;;;;18.40;15.27;;;11.10;1.00;;;;;;5062988;28;20048;-64
2021/05/02 09:33:03;;;;;;;19.58;14.77;;;10.90;1.00;;;;;;5059560;28;20054;-63
2021/05/02 09:35:50;;;;;;;24.10;16.23;;;10.90;1.00;;;;;;5061088;28;20119;-63
2021/05/02 09:38:39;;;;;;;19.58;15.85;;;10.60;1.00;;;;;;5058390;28;20055;-63
2021/05/02 09:41:28;;;;;;;23.33;17.27;;;10.50;1.00;;;;;;5058209;28;20400;-63
2021/05/02 09:44:38;;;;;;;21.98;18.00;;;10.40;1.00;;;;;;5058754;28;20048;-63
2021/05/02 09:47:30;;;;;;;21.23;17.55;;;10.90;1.00;;;;;;5053750;28;20048;-64
2021/05/02 09:50:21;;;;;;;20.88;17.05;;;11.50;1.00;;;;;;5062224;28;20147;-63
2021/05/02 09:53:08;;;;;;;22.92;16.30;;;11.40;1.00;;;;;;5057661;28;20475;-64
2021/05/02 09:55:56;;;;;;;20.58;17.27;;;11.20;1.00;;;;;;5057634;28;20109;-64
2021/05/02 09:58:43;;;;;;;21.58;16.10;;;12.00;1.00;;;;;;5063903;28;20041;-64
2021/05/02 10:01:30;;;;;;;21.88;16.98;;;12.10;1.00;;;;;;5054296;28;20045;-64
2021/05/02 10:04:18;;;;;;;19.48;16.50;;;12.30;1.00;;;;;;5054469;28;20076;-63
2021/05/02 10:07:10;;;;;;;23.15;17.17;;;11.60;1.00;;;;;;5059359;28;20048;-63
2021/05/02 10:09:59;;;;;;;19.20;15.85;;;11.10;1.00;;;;;;5062547;28;20086;-63
2021/05/02 10:12:53;;;;;;;21.00;17.15;;;11.50;1.00;;;;;;5050884;28;21573;-64
2021/05/02 10:15:41;;;;;;;21.10;17.05;;;12.10;1.00;;;;;;5062183;28;20640;-63
2021/05/02 10:18:28;;;;;;;20.92;17.02;;;12.20;1.00;;;;;;5065577;28;20526;-64
2021/05/02 10:21:16;;;;;;;23.17;17.55;;;12.50;1.00;;;;;;5059391;28;20048;-64
2021/05/02 10:24:05;;;;;;;19.98;16.73;;;11.80;1.00;;;;;;5059818;28;20045;-63
2021/05/02 10:26:53;;;;;;;25.80;17.58;;;12.10;1.00;;;;;;5061815;28;20044;-63
2021/05/02 10:29:41;;;;;;;20.25;16.25;;;12.60;1.00;;;;;;5065474;28;20055;-64
2021/05/02 10:32:33;;;;;;;22.00;16.60;;;11.70;1.00;;;;;;5061486;28;20397;-64
2021/05/02 10:35:21;;;;;;;17.52;15.65;;;11.50;1.00;;;;;;5060124;28;20166;-64
2021/05/02 10:38:10;;;;;;;20.38;16.30;;;12.10;1.00;;;;;;5063494;28;20190;-64
2021/05/02 10:43:49;;;;;;;16.38;13.77;;;11.20;1.00;;;;;;5121899;27;20432;-64
2021/05/02 10:46:47;;;;;;;18.55;14.98;;;12.00;1.00;;;;;;5099460;28;20067;-63
2021/05/02 10:49:55;;;;;;;18.60;15.40;;;12.10;1.00;;;;;;5103470;28;20051;-63
2021/05/02 10:52:59;;;;;;;21.33;15.05;;;12.50;1.00;;;;;;5083553;28;20051;-60
2021/05/02 10:55:50;;;;;;;18.70;14.68;;;13.10;1.00;;;;;;5081399;28;20063;-60
2021/05/02 10:58:38;;;;;;;20.42;16.13;;;12.20;1.00;;;;;;5082567;28;20047;-60
2021/05/02 11:01:28;;;;;;;15.82;14.13;;;12.80;1.00;;;;;;5081687;28;20389;-60
2021/05/02 11:04:15;;;;;;;16.25;14.40;;;13.20;1.00;;;;;;5077210;28;20415;-61
2021/05/02 11:07:03;;;;;;;15.18;13.20;;;12.20;1.00;;;;;;5078573;28;20045;-60
2021/05/02 11:09:55;;;;;;;17.42;13.55;;;13.50;1.00;;;;;;5081533;28;20052;-61
2021/05/02 11:12:43;;;;;;;12.98;11.50;;;12.90;1.00;;;;;;5078759;28;20149;-60
2021/05/02 11:15:39;;;;;;;13.95;11.95;;;13.00;1.00;;;;;;5080925;28;20044;-60
2021/05/02 11:18:50;;;;;;;16.92;13.45;;;12.90;1.00;;;;;;5080218;28;20063;-61
2021/05/02 11:22:07;;;;;;;18.80;14.60;;;12.90;1.00;;;;;;5081137;28;20036;-60
2021/05/02 11:25:04;;;;;;;16.73;13.73;;;11.90;1.00;;;;;;5079003;28;20083;-62
2021/05/02 11:27:59;;;;;;;17.35;14.77;;;11.40;1.00;;;;;;5076510;28;20337;-63
2021/05/02 11:30:48;;;;;;;20.10;17.40;;;11.40;1.00;;;;;;5081357;28;20124;-62
2021/05/02 11:33:36;;;;;;;25.63;18.45;;;10.50;1.00;;;;;;5075331;28;20140;-63
2021/05/02 11:36:37;;;;;;;22.20;18.98;;;10.20;1.00;;;;;;5084672;28;20059;-63
2021/05/02 11:39:42;;;;;;;19.67;16.70;;;9.90;6.60;;;;;;5079924;28;20033;-63
2021/05/02 11:42:50;;;;;;;21.98;18.23;;;10.00;4.90;;;;;;5077935;28;20403;-63
2021/05/02 11:45:45;;;;;;;20.75;16.40;;;10.40;1.00;;;;;;5082978;28;20491;-63
2021/05/02 11:48:34;;;;;;;20.17;16.02;;;9.90;1.00;;;;;;5081941;28;20174;-64
2021/05/02 11:51:26;;;;;;;18.20;14.98;;;10.30;1.30;;;;;;5084089;28;20530;-62
2021/05/02 11:54:13;;;;;;;13.80;11.65;;;10.70;1.00;;;;;;5072485;28;20092;-63
2021/05/02 11:57:01;;;;;;;11.85;10.65;;;10.30;1.00;;;;;;5063820;28;20047;-63
2021/05/02 11:59:49;;;;;;;10.90;8.50;;;10.70;1.00;;;;;;5066022;28;20725;-62
2021/05/02 12:02:43;;;;;;;8.80;7.88;;;10.50;1.00;;;;;;5064905;28;20041;-61
2021/05/02 12:05:30;;;;;;;10.00;8.93;;;10.60;1.00;;;;;;5070662;28;20560;-63
2021/05/02 12:08:22;;;;;;;14.25;11.48;;;10.70;1.00;;;;;;5065344;28;20086;-63
2021/05/02 12:11:10;;;;;;;13.10;10.90;;;11.00;1.00;;;;;;5069613;28;20071;-63
2021/05/02 12:13:57;;;;;;;12.13;10.75;;;10.80;1.00;;;;;;5065704;28;20518;-62
2021/05/02 12:16:49;;;;;;;13.15;10.85;;;11.10;1.00;;;;;;5067948;28;20093;-62
2021/05/02 12:19:37;;;;;;;14.52;11.60;;;11.50;1.00;;;;;;5068908;28;20076;-63
2021/05/02 12:22:24;;;;;;;14.13;12.23;;;11.50;1.00;;;;;;5064779;28;20121;-62
2021/05/02 12:25:12;;;;;;;13.00;11.65;;;11.80;1.00;;;;;;5070622;28;20723;-64
2021/05/02 12:28:01;;;;;;;15.38;12.18;;;11.40;1.00;;;;;;5064197;28;20044;-63
2021/05/02 12:30:48;;;;;;;13.55;12.15;;;11.90;1.00;;;;;;5067580;28;20139;-65
2021/05/02 12:33:36;;;;;;;15.75;13.50;;;11.90;1.00;;;;;;5062574;28;20058;-63
2021/05/02 12:36:28;;;;;;;15.55;13.70;;;11.70;1.00;;;;;;5064956;28;20633;-62
2021/05/02 12:39:15;;;;;;;14.55;13.00;;;11.30;1.00;;;;;;5071054;28;20036;-62
2021/05/02 12:42:06;;;;;;;16.85;14.68;;;11.90;1.00;;;;;;5067480;28;20105;-63
2021/05/02 12:44:53;;;;;;;17.48;14.10;;;11.70;1.00;;;;;;5065138;28;20084;-63
2021/05/02 12:47:43;;;;;;;19.77;14.05;;;12.40;1.00;;;;;;5058617;28;20086;-64
2021/05/02 12:50:39;;;;;;;15.45;13.52;;;12.20;1.00;;;;;;5065356;28;20044;-63
2021/05/02 12:53:38;;;;;;;15.48;13.68;;;12.50;1.00;;;;;;5060104;28;20036;-63
2021/05/02 12:56:25;;;;;;;16.73;14.27;;;12.40;1.00;;;;;;5061037;28;20139;-63
2021/05/02 12:59:46;;;;;;;16.67;14.85;;;11.00;1.00;;;;;;5072462;28;20131;-63
2021/05/02 13:02:42;;;;;;;15.25;12.05;;;11.30;1.00;;;;;;4983383;28;20074;-63
2021/05/02 13:05:29;;;;;;;11.05;8.82;;;10.00;1.00;;;;;;5066560;28;20420;-62
2021/05/02 13:08:16;;;;;;;14.43;10.75;;;9.80;1.00;;;;;;5064626;28;20422;-62
2021/05/02 13:11:26;;;;;;;11.15;8.90;;;9.70;1.00;;;;;;5067440;28;20044;-63
2021/05/02 13:14:20;;;;;;;9.82;8.25;;;9.70;1.80;;;;;;5063208;28;20032;-61
2021/05/02 13:17:13;;;;;;;10.25;7.97;;;10.10;1.00;;;;;;5046963;28;20044;-63
2021/05/02 13:20:03;;;;;;;10.15;7.60;;;10.40;1.00;;;;;;5066608;28;20101;-62
2021/05/02 13:22:51;;;;;;;9.88;8.55;;;10.60;1.00;;;;;;5064784;28;20048;-61
2021/05/02 13:25:38;;;;;;;11.00;9.30;;;11.00;1.00;;;;;;5066697;28;20274;-63
2021/05/02 13:28:25;;;;;;;11.77;9.68;;;11.30;1.00;;;;;;5068350;28;20519;-64
2021/05/02 13:31:17;;;;;;;9.52;8.27;;;11.80;1.00;;;;;;5068304;28;20049;-64
2021/05/02 13:34:05;;;;;;;9.90;8.90;;;11.60;1.00;;;;;;5062458;28;20427;-64
2021/05/02 13:36:55;;;;;;;11.95;8.38;;;11.90;1.00;;;;;;5064946;28;20062;-63
2021/05/02 13:39:42;;;;;;;9.27;8.30;;;12.10;1.00;;;;;;5069566;28;20952;-64
2021/05/02 13:42:30;;;;;;;10.15;8.60;;;11.70;1.00;;;;;;5065141;28;20352;-64
2021/05/02 13:45:18;;;;;;;10.32;8.95;;;12.30;1.00;;;;;;5064273;28;20074;-63
2021/05/02 13:48:05;;;;;;;11.02;9.43;;;12.00;1.00;;;;;;5063908;28;20044;-63
2021/05/02 13:50:53;;;;;;;12.70;9.73;;;12.30;1.00;;;;;;5067977;28;20121;-63
2021/05/02 13:53:41;;;;;;;11.35;9.75;;;12.40;1.00;;;;;;5051796;28;20049;-64
2021/05/02 13:56:28;;;;;;;11.38;10.18;;;12.10;1.00;;;;;;5063689;28;20044;-64
2021/05/02 13:59:15;;;;;;;11.98;10.70;;;12.00;1.00;;;;;;5085668;28;20052;-64
2021/05/02 14:02:02;;;;;;;13.13;11.50;;;12.00;1.00;;;;;;5085061;28;20054;-64
2021/05/02 14:04:52;;;;;;;14.80;11.85;;;12.20;1.00;;;;;;5084031;28;20052;-64
2021/05/02 14:07:40;;;;;;;12.65;11.00;;;12.30;1.00;;;;;;5081605;28;20514;-64
2021/05/02 14:10:29;;;;;;;12.65;11.30;;;13.10;1.00;;;;;;5085568;28;20044;-64
2021/05/02 14:13:18;;;;;;;12.45;11.07;;;13.00;1.00;;;;;;5079875;28;20043;-64
2021/05/02 14:16:05;;;;;;;12.52;11.18;;;12.70;1.00;;;;;;5081461;28;20416;-63
2021/05/02 14:18:53;;;;;;;14.35;11.98;;;13.20;1.00;;;;;;5084788;28;20181;-64
2021/05/02 14:21:40;;;;;;;13.05;11.23;;;13.50;1.00;;;;;;5084126;28;20173;-64
2021/05/02 14:24:29;;;;;;;13.02;11.55;;;13.60;1.00;;;;;;5079497;28;20036;-63
2021/05/02 14:27:17;;;;;;;11.85;10.63;;;13.10;1.00;;;;;;5082348;28;20052;-63
2021/05/02 14:30:05;;;;;;;12.48;11.18;;;12.80;1.00;;;;;;5084145;28;20040;-64
2021/05/02 14:32:52;;;;;;;12.73;11.25;;;13.10;1.00;;;;;;5079677;28;20040;-64
2021/05/02 14:35:44;;;;;;;13.45;11.93;;;12.30;1.00;;;;;;5085073;28;20134;-65